Data for 04/30/2017

Time Sea-Level Adjusted Pressure Absolute Pressure Temperature Relative Humidity Dew Point   
(mb) (inHg) (mb) (inHg) (C) (F) (%) (C) (F)
00:05 1019 30.09 848 25.04 3.7 38.6 59 -3.7 25.4
00:10 1019 30.09 848 25.04 3.3 38 60 -3.7 25.3
00:15 1019 30.09 848 25.04 3 37.5 62 -3.6 25.6
00:20 1019 30.09 848 25.04 2.8 37 61 -4 24.9
00:25 1019 30.09 848 25.04 2.8 37.1 61 -4 24.8
00:30 1019 30.09 848 25.04 2.9 37.2 60 -4 24.7
00:35 1019 30.09 848 25.04 2.8 37.1 61 -3.9 24.9
00:40 1019 30.09 849 25.07 2.8 37 60 -4.2 24.4
00:45 1019 30.09 848 25.04 3 37.4 59 -4.2 24.4
00:50 1019 30.09 848 25.04 3.1 37.5 59 -4.2 24.4
00:55 1019 30.09 848 25.04 3.1 37.6 58 -4.3 24.2
01:00 1019 30.09 848 25.04 3.2 37.7 56 -4.7 23.5
01:05 1019 30.09 848 25.04 3.4 38.1 56 -4.6 23.7
01:10 1019 30.09 848 25.04 3.4 38 57 -4.4 24
01:15 1019 30.09 848 25.04 3 37.5 59 -4.2 24.4
01:20 1019 30.09 848 25.04 2.7 36.9 60 -4.3 24.2
01:25 1019 30.09 848 25.04 2.6 36.6 61 -4.2 24.5
01:30 1019 30.09 848 25.04 2.4 36.3 61 -4.3 24.3
01:35 1019 30.09 848 25.04 2.4 36.3 60 -4.5 23.9
01:40 1019 30.09 848 25.04 2.4 36.4 61 -4.4 24.2
01:45 1019 30.09 848 25.04 2.3 36.2 61 -4.4 24.2
01:50 1019 30.09 848 25.04 2.4 36.3 61 -4.4 24.2
01:55 1019 30.09 848 25.04 2.3 36.2 61 -4.4 24.1
02:00 1019 30.09 848 25.04 2.3 36.1 60 -4.6 23.7
02:05 1019 30.09 848 25.04 2.4 36.3 61 -4.4 24.1
02:10 1019 30.09 848 25.04 2.3 36.1 61 -4.5 23.9
02:15 1019 30.09 848 25.04 2.2 36 62 -4.3 24.3
02:20 1019 30.09 848 25.04 1.9 35.5 61 -4.7 23.5
02:25 1019 30.09 848 25.04 2.1 35.7 62 -4.5 23.8
02:30 1019 30.09 848 25.04 2.1 35.7 60 -5 23.1
02:35 1019 30.09 848 25.04 2.4 36.2 59 -4.9 23.1
02:40 1019 30.09 848 25.04 2.6 36.6 57 -5.1 22.8
02:45 1019 30.09 848 25.04 2.8 37 56 -5.2 22.6
02:50 1019 30.09 848 25.04 2.9 37.2 56 -5 23
02:55 1019 30.09 848 25.04 3 37.3 57 -4.6 23.6
03:00 1019 30.09 848 25.04 2.6 36.6 61 -4.2 24.4
03:05 1019 30.09 848 25.04 2.5 36.5 60 -4.5 24
03:10 1019 30.09 848 25.04 2.5 36.5 62 -4.1 24.6
03:15 1019 30.09 848 25.04 2 35.6 64 -4.2 24.5
03:20 1019 30.09 848 25.04 1.7 35.1 64 -4.4 24
03:25 1019 30.09 848 25.04 1.6 35 64 -4.5 23.9
03:30 1019 30.09 848 25.04 1.7 35.1 65 -4.2 24.5
03:35 1019 30.09 848 25.04 1.6 35 65 -4.2 24.4
03:40 1019 30.09 848 25.04 1.7 35 64 -4.4 24
03:45 1019 30.09 848 25.04 2.1 35.7 60 -4.9 23.1
03:50 1019 30.09 848 25.04 2.3 36.2 58 -5.2 22.7
03:55 1019 30.09 848 25.04 2.4 36.3 61 -4.4 24
04:00 1019 30.09 848 25.04 2.2 35.9 64 -4 24.8
04:05 1019 30.09 848 25.04 2 35.6 64 -4 24.8
04:10 1019 30.09 848 25.04 1.9 35.5 65 -3.9 24.9
04:15 1019 30.09 848 25.04 1.8 35.2 65 -4 24.8
04:20 1019 30.09 848 25.04 1.9 35.4 64 -4.1 24.6
04:25 1019 30.09 848 25.04 2.1 35.7 65 -3.8 25.2
04:30 1019 30.09 848 25.04 2.5 36.5 62 -4.1 24.6
04:35 1019 30.09 848 25.04 2.5 36.5 61 -4.2 24.4
04:40 1019 30.09 848 25.04 2.3 36.2 59 -4.8 23.4
04:45 1019 30.09 848 25.04 2.5 36.5 60 -4.5 24
04:50 1019 30.09 848 25.04 2.5 36.5 60 -4.5 24
04:55 1019 30.09 848 25.04 2.4 36.4 64 -3.7 25.3